sensor_id;sensor_type;location;lat;lon;timestamp;P1;durP1;ratioP1;P2;durP2;ratioP2
16593;SDS011;8410;52.532;13.336;2023-03-23T00:01:27;3.70;;;2.23;;
16593;SDS011;8410;52.532;13.336;2023-03-23T00:03:55;5.07;;;2.80;;
16593;SDS011;8410;52.532;13.336;2023-03-23T00:06:23;2.97;;;2.70;;
16593;SDS011;8410;52.532;13.336;2023-03-23T00:08:53;14.33;;;12.77;;
16593;SDS011;8410;52.532;13.336;2023-03-23T00:11:25;8.63;;;7.73;;
16593;SDS011;8410;52.532;13.336;2023-03-23T00:13:55;8.70;;;4.50;;
16593;SDS011;8410;52.532;13.336;2023-03-23T00:16:26;8.13;;;5.80;;
16593;SDS011;8410;52.532;13.336;2023-03-23T00:18:56;4.37;;;3.80;;
16593;SDS011;8410;52.532;13.336;2023-03-23T00:21:25;3.70;;;2.90;;
16593;SDS011;8410;52.532;13.336;2023-03-23T00:23:59;4.13;;;2.60;;
16593;SDS011;8410;52.532;13.336;2023-03-23T00:26:27;5.30;;;4.80;;
16593;SDS011;8410;52.532;13.336;2023-03-23T00:28:54;4.40;;;3.13;;
16593;SDS011;8410;52.532;13.336;2023-03-23T00:31:21;5.47;;;2.60;;
16593;SDS011;8410;52.532;13.336;2023-03-23T00:33:48;4.67;;;3.40;;
16593;SDS011;8410;52.532;13.336;2023-03-23T00:36:14;2.50;;;2.13;;
16593;SDS011;8410;52.532;13.336;2023-03-23T00:38:42;7.10;;;3.50;;
16593;SDS011;8410;52.532;13.336;2023-03-23T00:41:10;3.20;;;2.90;;
16593;SDS011;8410;52.532;13.336;2023-03-23T00:43:37;3.10;;;2.80;;
16593;SDS011;8410;52.532;13.336;2023-03-23T00:46:04;2.20;;;2.00;;
16593;SDS011;8410;52.532;13.336;2023-03-23T00:48:34;4.20;;;3.57;;
16593;SDS011;8410;52.532;13.336;2023-03-23T00:51:06;2.87;;;2.33;;
16593;SDS011;8410;52.532;13.336;2023-03-23T00:53:37;2.70;;;2.50;;
16593;SDS011;8410;52.532;13.336;2023-03-23T00:56:04;4.53;;;3.30;;
16593;SDS011;8410;52.532;13.336;2023-03-23T00:58:32;4.70;;;3.70;;
16593;SDS011;8410;52.532;13.336;2023-03-23T01:00:58;4.73;;;3.63;;
16593;SDS011;8410;52.532;13.336;2023-03-23T01:03:25;4.17;;;2.90;;
16593;SDS011;8410;52.532;13.336;2023-03-23T01:05:53;4.80;;;2.90;;
16593;SDS011;8410;52.532;13.336;2023-03-23T01:08:20;5.93;;;3.00;;
16593;SDS011;8410;52.532;13.336;2023-03-23T01:10:46;2.80;;;2.50;;
16593;SDS011;8410;52.532;13.336;2023-03-23T01:13:13;4.07;;;3.20;;
16593;SDS011;8410;52.532;13.336;2023-03-23T01:15:41;3.93;;;2.90;;
16593;SDS011;8410;52.532;13.336;2023-03-23T01:18:09;4.47;;;3.10;;
16593;SDS011;8410;52.532;13.336;2023-03-23T01:20:36;2.90;;;2.47;;
16593;SDS011;8410;52.532;13.336;2023-03-23T01:23:04;3.33;;;2.93;;
16593;SDS011;8410;52.532;13.336;2023-03-23T01:25:31;4.87;;;4.40;;
16593;SDS011;8410;52.532;13.336;2023-03-23T01:28:00;4.20;;;3.13;;
16593;SDS011;8410;52.532;13.336;2023-03-23T01:30:27;5.40;;;3.67;;
16593;SDS011;8410;52.532;13.336;2023-03-23T01:32:55;4.30;;;3.00;;
16593;SDS011;8410;52.532;13.336;2023-03-23T01:35:21;5.67;;;4.20;;
16593;SDS011;8410;52.532;13.336;2023-03-23T01:37:48;3.90;;;2.87;;
16593;SDS011;8410;52.532;13.336;2023-03-23T01:40:15;4.50;;;2.93;;
16593;SDS011;8410;52.532;13.336;2023-03-23T01:42:42;3.80;;;3.37;;
16593;SDS011;8410;52.532;13.336;2023-03-23T01:48:10;4.60;;;2.60;;
16593;SDS011;8410;52.532;13.336;2023-03-23T01:50:43;3.77;;;2.70;;
16593;SDS011;8410;52.532;13.336;2023-03-23T01:53:16;3.67;;;2.10;;
16593;SDS011;8410;52.532;13.336;2023-03-23T01:55:43;2.60;;;2.40;;
16593;SDS011;8410;52.532;13.336;2023-03-23T01:58:13;2.87;;;2.57;;
16593;SDS011;8410;52.532;13.336;2023-03-23T02:00:42;3.40;;;2.37;;
16593;SDS011;8410;52.532;13.336;2023-03-23T02:03:09;4.23;;;3.10;;
16593;SDS011;8410;52.532;13.336;2023-03-23T02:05:41;3.07;;;2.80;;
16593;SDS011;8410;52.532;13.336;2023-03-23T02:08:08;4.73;;;3.43;;
16593;SDS011;8410;52.532;13.336;2023-03-23T02:10:38;2.77;;;2.37;;
16593;SDS011;8410;52.532;13.336;2023-03-23T02:13:05;3.70;;;2.93;;
16593;SDS011;8410;52.532;13.336;2023-03-23T02:15:36;4.37;;;2.50;;
16593;SDS011;8410;52.532;13.336;2023-03-23T02:18:15;3.87;;;2.97;;
16593;SDS011;8410;52.532;13.336;2023-03-23T02:21:09;3.53;;;2.70;;
16593;SDS011;8410;52.532;13.336;2023-03-23T02:23:53;3.40;;;2.60;;
16593;SDS011;8410;52.532;13.336;2023-03-23T02:26:38;2.93;;;2.47;;
16593;SDS011;8410;52.532;13.336;2023-03-23T02:29:25;3.90;;;2.50;;
16593;SDS011;8410;52.532;13.336;2023-03-23T02:32:04;4.07;;;2.60;;
16593;SDS011;8410;52.532;13.336;2023-03-23T02:34:40;4.93;;;2.80;;
16593;SDS011;8410;52.532;13.336;2023-03-23T02:37:09;2.53;;;2.20;;
16593;SDS011;8410;52.532;13.336;2023-03-23T02:39:41;3.30;;;2.30;;
16593;SDS011;8410;52.532;13.336;2023-03-23T02:42:11;3.00;;;2.63;;
16593;SDS011;8410;52.532;13.336;2023-03-23T02:44:42;3.57;;;2.97;;
16593;SDS011;8410;52.532;13.336;2023-03-23T02:47:11;5.93;;;2.43;;
16593;SDS011;8410;52.532;13.336;2023-03-23T02:49:44;2.83;;;2.20;;
16593;SDS011;8410;52.532;13.336;2023-03-23T02:52:14;4.00;;;2.97;;
16593;SDS011;8410;52.532;13.336;2023-03-23T02:54:46;5.73;;;2.20;;
16593;SDS011;8410;52.532;13.336;2023-03-23T02:57:14;4.17;;;2.47;;
16593;SDS011;8410;52.532;13.336;2023-03-23T02:59:41;3.40;;;2.47;;
16593;SDS011;8410;52.532;13.336;2023-03-23T03:02:08;3.70;;;2.50;;
16593;SDS011;8410;52.532;13.336;2023-03-23T03:04:40;3.50;;;2.50;;
16593;SDS011;8410;52.532;13.336;2023-03-23T03:10:25;8.77;;;5.90;;
16593;SDS011;8410;52.532;13.336;2023-03-23T03:12:55;8.20;;;7.37;;
16593;SDS011;8410;52.532;13.336;2023-03-23T03:15:27;18.57;;;16.10;;
16593;SDS011;8410;52.532;13.336;2023-03-23T03:17:59;5.60;;;5.00;;
16593;SDS011;8410;52.532;13.336;2023-03-23T03:20:29;3.20;;;2.67;;
16593;SDS011;8410;52.532;13.336;2023-03-23T03:22:59;3.20;;;2.90;;
16593;SDS011;8410;52.532;13.336;2023-03-23T03:25:27;2.57;;;2.37;;
16593;SDS011;8410;52.532;13.336;2023-03-23T03:27:54;4.00;;;3.30;;
16593;SDS011;8410;52.532;13.336;2023-03-23T03:30:23;2.87;;;2.53;;
16593;SDS011;8410;52.532;13.336;2023-03-23T03:32:53;2.63;;;2.17;;
16593;SDS011;8410;52.532;13.336;2023-03-23T03:35:20;3.23;;;2.60;;
16593;SDS011;8410;52.532;13.336;2023-03-23T03:37:48;4.23;;;3.03;;
16593;SDS011;8410;52.532;13.336;2023-03-23T03:40:19;5.07;;;2.70;;
16593;SDS011;8410;52.532;13.336;2023-03-23T03:42:47;3.90;;;2.50;;
16593;SDS011;8410;52.532;13.336;2023-03-23T03:45:15;3.07;;;2.40;;
16593;SDS011;8410;52.532;13.336;2023-03-23T03:47:43;3.40;;;2.80;;
16593;SDS011;8410;52.532;13.336;2023-03-23T03:50:09;4.60;;;2.40;;
16593;SDS011;8410;52.532;13.336;2023-03-23T03:52:36;4.47;;;2.90;;
16593;SDS011;8410;52.532;13.336;2023-03-23T03:55:03;2.90;;;2.63;;
16593;SDS011;8410;52.532;13.336;2023-03-23T03:57:33;2.80;;;2.37;;
16593;SDS011;8410;52.532;13.336;2023-03-23T04:00:00;3.43;;;2.50;;
16593;SDS011;8410;52.532;13.336;2023-03-23T04:02:37;4.83;;;2.97;;
16593;SDS011;8410;52.532;13.336;2023-03-23T04:05:04;4.23;;;1.77;;
16593;SDS011;8410;52.532;13.336;2023-03-23T04:07:31;2.93;;;2.30;;
16593;SDS011;8410;52.532;13.336;2023-03-23T04:09:57;2.33;;;2.17;;
16593;SDS011;8410;52.532;13.336;2023-03-23T04:12:24;3.33;;;2.43;;
16593;SDS011;8410;52.532;13.336;2023-03-23T04:14:51;3.03;;;2.20;;
16593;SDS011;8410;52.532;13.336;2023-03-23T04:17:18;3.00;;;2.70;;
16593;SDS011;8410;52.532;13.336;2023-03-23T04:19:45;2.90;;;1.90;;
16593;SDS011;8410;52.532;13.336;2023-03-23T04:22:12;2.93;;;2.60;;
16593;SDS011;8410;52.532;13.336;2023-03-23T04:24:41;2.27;;;2.07;;
16593;SDS011;8410;52.532;13.336;2023-03-23T04:27:07;2.63;;;2.43;;
16593;SDS011;8410;52.532;13.336;2023-03-23T04:29:34;5.97;;;3.00;;
16593;SDS011;8410;52.532;13.336;2023-03-23T04:32:01;2.90;;;2.50;;
16593;SDS011;8410;52.532;13.336;2023-03-23T04:34:28;3.57;;;2.80;;
16593;SDS011;8410;52.532;13.336;2023-03-23T04:36:59;4.83;;;2.50;;
16593;SDS011;8410;52.532;13.336;2023-03-23T04:39:25;3.57;;;2.90;;
16593;SDS011;8410;52.532;13.336;2023-03-23T04:41:54;4.37;;;2.00;;
16593;SDS011;8410;52.532;13.336;2023-03-23T04:44:20;3.37;;;2.70;;
16593;SDS011;8410;52.532;13.336;2023-03-23T04:46:47;4.03;;;2.90;;
16593;SDS011;8410;52.532;13.336;2023-03-23T04:49:15;3.77;;;2.80;;
16593;SDS011;8410;52.532;13.336;2023-03-23T04:51:46;4.17;;;2.40;;
16593;SDS011;8410;52.532;13.336;2023-03-23T04:54:13;4.93;;;2.60;;
16593;SDS011;8410;52.532;13.336;2023-03-23T04:56:39;5.47;;;3.80;;
16593;SDS011;8410;52.532;13.336;2023-03-23T04:59:06;3.23;;;2.60;;
16593;SDS011;8410;52.532;13.336;2023-03-23T05:01:33;3.60;;;2.20;;
16593;SDS011;8410;52.532;13.336;2023-03-23T05:04:01;4.03;;;2.93;;
16593;SDS011;8410;52.532;13.336;2023-03-23T05:06:29;4.57;;;2.97;;
16593;SDS011;8410;52.532;13.336;2023-03-23T05:08:55;2.70;;;2.47;;
16593;SDS011;8410;52.532;13.336;2023-03-23T05:11:22;4.47;;;2.80;;
16593;SDS011;8410;52.532;13.336;2023-03-23T05:13:48;3.60;;;3.13;;
16593;SDS011;8410;52.532;13.336;2023-03-23T05:16:15;3.00;;;2.60;;
16593;SDS011;8410;52.532;13.336;2023-03-23T05:18:41;2.93;;;2.63;;
16593;SDS011;8410;52.532;13.336;2023-03-23T05:21:08;5.20;;;3.37;;
16593;SDS011;8410;52.532;13.336;2023-03-23T05:23:36;5.77;;;2.97;;
16593;SDS011;8410;52.532;13.336;2023-03-23T05:26:03;4.43;;;2.57;;
16593;SDS011;8410;52.532;13.336;2023-03-23T05:28:29;3.00;;;2.70;;
16593;SDS011;8410;52.532;13.336;2023-03-23T05:30:56;3.70;;;2.80;;
16593;SDS011;8410;52.532;13.336;2023-03-23T05:33:23;2.90;;;2.60;;
16593;SDS011;8410;52.532;13.336;2023-03-23T05:35:49;5.03;;;3.23;;
16593;SDS011;8410;52.532;13.336;2023-03-23T05:38:15;4.40;;;2.73;;
16593;SDS011;8410;52.532;13.336;2023-03-23T05:40:44;2.87;;;2.40;;
16593;SDS011;8410;52.532;13.336;2023-03-23T05:43:10;3.37;;;3.07;;
16593;SDS011;8410;52.532;13.336;2023-03-23T05:45:37;4.33;;;3.17;;
16593;SDS011;8410;52.532;13.336;2023-03-23T05:48:03;7.27;;;3.33;;
16593;SDS011;8410;52.532;13.336;2023-03-23T05:50:30;8.93;;;5.50;;
16593;SDS011;8410;52.532;13.336;2023-03-23T05:52:56;3.63;;;3.00;;
16593;SDS011;8410;52.532;13.336;2023-03-23T05:55:23;4.80;;;2.40;;
16593;SDS011;8410;52.532;13.336;2023-03-23T05:57:51;6.23;;;2.67;;
16593;SDS011;8410;52.532;13.336;2023-03-23T06:00:18;3.97;;;2.67;;
16593;SDS011;8410;52.532;13.336;2023-03-23T06:02:48;5.07;;;2.50;;
16593;SDS011;8410;52.532;13.336;2023-03-23T06:05:16;6.73;;;2.97;;
16593;SDS011;8410;52.532;13.336;2023-03-23T06:07:43;5.83;;;3.00;;
16593;SDS011;8410;52.532;13.336;2023-03-23T06:10:10;5.43;;;2.70;;
16593;SDS011;8410;52.532;13.336;2023-03-23T06:12:37;4.97;;;2.87;;
16593;SDS011;8410;52.532;13.336;2023-03-23T06:15:05;6.20;;;3.07;;
16593;SDS011;8410;52.532;13.336;2023-03-23T06:17:33;5.90;;;3.23;;
16593;SDS011;8410;52.532;13.336;2023-03-23T06:20:01;5.80;;;3.00;;
16593;SDS011;8410;52.532;13.336;2023-03-23T06:22:29;3.47;;;2.57;;
16593;SDS011;8410;52.532;13.336;2023-03-23T06:24:56;5.03;;;2.70;;
16593;SDS011;8410;52.532;13.336;2023-03-23T06:27:22;5.67;;;2.87;;
16593;SDS011;8410;52.532;13.336;2023-03-23T06:29:49;3.53;;;2.67;;
16593;SDS011;8410;52.532;13.336;2023-03-23T06:32:16;3.40;;;2.33;;
16593;SDS011;8410;52.532;13.336;2023-03-23T06:34:43;4.47;;;2.63;;
16593;SDS011;8410;52.532;13.336;2023-03-23T06:37:11;7.57;;;2.53;;
16593;SDS011;8410;52.532;13.336;2023-03-23T06:39:37;5.50;;;3.50;;
16593;SDS011;8410;52.532;13.336;2023-03-23T06:42:04;4.23;;;2.30;;
16593;SDS011;8410;52.532;13.336;2023-03-23T06:44:34;4.33;;;2.80;;
16593;SDS011;8410;52.532;13.336;2023-03-23T06:47:01;3.47;;;2.60;;
16593;SDS011;8410;52.532;13.336;2023-03-23T06:49:29;2.73;;;2.43;;
16593;SDS011;8410;52.532;13.336;2023-03-23T06:51:56;4.53;;;2.67;;
16593;SDS011;8410;52.532;13.336;2023-03-23T06:54:25;3.73;;;2.10;;
16593;SDS011;8410;52.532;13.336;2023-03-23T06:56:52;3.70;;;2.50;;
16593;SDS011;8410;52.532;13.336;2023-03-23T06:59:18;5.37;;;3.40;;
16593;SDS011;8410;52.532;13.336;2023-03-23T07:01:45;4.13;;;2.47;;
16593;SDS011;8410;52.532;13.336;2023-03-23T07:04:13;5.43;;;2.37;;
16593;SDS011;8410;52.532;13.336;2023-03-23T07:06:42;4.93;;;2.67;;
16593;SDS011;8410;52.532;13.336;2023-03-23T07:09:08;3.83;;;2.97;;
16593;SDS011;8410;52.532;13.336;2023-03-23T07:11:35;6.53;;;2.70;;
16593;SDS011;8410;52.532;13.336;2023-03-23T07:14:02;6.97;;;3.60;;
16593;SDS011;8410;52.532;13.336;2023-03-23T07:16:29;5.30;;;3.50;;
16593;SDS011;8410;52.532;13.336;2023-03-23T07:18:56;5.17;;;2.60;;
16593;SDS011;8410;52.532;13.336;2023-03-23T07:21:22;3.97;;;2.90;;
16593;SDS011;8410;52.532;13.336;2023-03-23T07:23:50;4.60;;;3.20;;
16593;SDS011;8410;52.532;13.336;2023-03-23T07:26:16;4.47;;;3.23;;
16593;SDS011;8410;52.532;13.336;2023-03-23T07:28:43;5.10;;;3.07;;
16593;SDS011;8410;52.532;13.336;2023-03-23T07:31:11;3.77;;;2.27;;
16593;SDS011;8410;52.532;13.336;2023-03-23T07:33:37;4.60;;;2.70;;
16593;SDS011;8410;52.532;13.336;2023-03-23T07:36:04;4.60;;;3.33;;
16593;SDS011;8410;52.532;13.336;2023-03-23T07:38:31;2.70;;;2.40;;
16593;SDS011;8410;52.532;13.336;2023-03-23T07:40:59;3.27;;;2.57;;
16593;SDS011;8410;52.532;13.336;2023-03-23T07:43:25;4.27;;;2.50;;
16593;SDS011;8410;52.532;13.336;2023-03-23T07:45:52;3.43;;;2.87;;
16593;SDS011;8410;52.532;13.336;2023-03-23T07:48:18;4.33;;;3.50;;
16593;SDS011;8410;52.532;13.336;2023-03-23T07:50:45;3.20;;;2.90;;
16593;SDS011;8410;52.532;13.336;2023-03-23T07:53:12;4.20;;;3.60;;
16593;SDS011;8410;52.532;13.336;2023-03-23T07:55:38;6.47;;;4.20;;
16593;SDS011;8410;52.532;13.336;2023-03-23T07:58:06;6.33;;;5.30;;
16593;SDS011;8410;52.532;13.336;2023-03-23T08:00:33;3.77;;;3.17;;
16593;SDS011;8410;52.532;13.336;2023-03-23T08:03:00;19.90;;;17.87;;
16593;SDS011;8410;52.532;13.336;2023-03-23T08:05:27;13.83;;;11.93;;
16593;SDS011;8410;52.532;13.336;2023-03-23T08:07:54;10.30;;;8.27;;
16593;SDS011;8410;52.532;13.336;2023-03-23T08:10:21;9.93;;;8.93;;
16593;SDS011;8410;52.532;13.336;2023-03-23T08:12:50;8.57;;;5.83;;
16593;SDS011;8410;52.532;13.336;2023-03-23T08:15:19;10.20;;;4.00;;
16593;SDS011;8410;52.532;13.336;2023-03-23T08:17:46;6.27;;;4.47;;
16593;SDS011;8410;52.532;13.336;2023-03-23T08:20:13;6.70;;;4.80;;
16593;SDS011;8410;52.532;13.336;2023-03-23T08:22:42;4.90;;;4.27;;
16593;SDS011;8410;52.532;13.336;2023-03-23T08:25:13;5.17;;;3.90;;
16593;SDS011;8410;52.532;13.336;2023-03-23T08:27:42;4.83;;;3.20;;
16593;SDS011;8410;52.532;13.336;2023-03-23T08:30:09;5.00;;;2.33;;
16593;SDS011;8410;52.532;13.336;2023-03-23T08:32:38;2.90;;;2.70;;
16593;SDS011;8410;52.532;13.336;2023-03-23T08:35:05;4.40;;;2.90;;
16593;SDS011;8410;52.532;13.336;2023-03-23T08:37:33;4.03;;;3.00;;
16593;SDS011;8410;52.532;13.336;2023-03-23T08:40:00;4.97;;;2.87;;
16593;SDS011;8410;52.532;13.336;2023-03-23T08:42:32;4.47;;;3.37;;
16593;SDS011;8410;52.532;13.336;2023-03-23T08:44:58;4.77;;;2.77;;
16593;SDS011;8410;52.532;13.336;2023-03-23T08:47:25;4.33;;;3.10;;
16593;SDS011;8410;52.532;13.336;2023-03-23T08:49:53;5.53;;;2.90;;
16593;SDS011;8410;52.532;13.336;2023-03-23T08:52:20;7.50;;;4.00;;
16593;SDS011;8410;52.532;13.336;2023-03-23T08:54:46;5.50;;;3.17;;
16593;SDS011;8410;52.532;13.336;2023-03-23T08:57:13;3.03;;;2.80;;
16593;SDS011;8410;52.532;13.336;2023-03-23T08:59:41;2.67;;;2.47;;
16593;SDS011;8410;52.532;13.336;2023-03-23T09:02:08;2.77;;;2.40;;
16593;SDS011;8410;52.532;13.336;2023-03-23T09:04:36;2.83;;;2.30;;
16593;SDS011;8410;52.532;13.336;2023-03-23T09:07:05;2.67;;;2.23;;
16593;SDS011;8410;52.532;13.336;2023-03-23T09:09:32;2.37;;;2.17;;
16593;SDS011;8410;52.532;13.336;2023-03-23T09:11:59;2.30;;;2.10;;
16593;SDS011;8410;52.532;13.336;2023-03-23T09:14:25;3.70;;;2.30;;
16593;SDS011;8410;52.532;13.336;2023-03-23T09:16:52;3.23;;;2.50;;
16593;SDS011;8410;52.532;13.336;2023-03-23T09:19:19;4.40;;;2.47;;
16593;SDS011;8410;52.532;13.336;2023-03-23T09:21:45;3.17;;;2.73;;
16593;SDS011;8410;52.532;13.336;2023-03-23T09:24:13;3.37;;;2.70;;
16593;SDS011;8410;52.532;13.336;2023-03-23T09:26:40;8.83;;;2.80;;
16593;SDS011;8410;52.532;13.336;2023-03-23T09:29:06;3.33;;;2.10;;
16593;SDS011;8410;52.532;13.336;2023-03-23T09:31:33;3.20;;;2.10;;
16593;SDS011;8410;52.532;13.336;2023-03-23T09:34:01;2.60;;;2.40;;
16593;SDS011;8410;52.532;13.336;2023-03-23T09:36:29;3.87;;;2.50;;
16593;SDS011;8410;52.532;13.336;2023-03-23T09:38:56;3.63;;;2.27;;
16593;SDS011;8410;52.532;13.336;2023-03-23T09:41:32;2.97;;;2.20;;
16593;SDS011;8410;52.532;13.336;2023-03-23T09:44:10;4.00;;;2.20;;
16593;SDS011;8410;52.532;13.336;2023-03-23T09:46:49;3.33;;;2.27;;
16593;SDS011;8410;52.532;13.336;2023-03-23T09:49:24;2.83;;;2.10;;
16593;SDS011;8410;52.532;13.336;2023-03-23T09:51:54;2.40;;;2.07;;
16593;SDS011;8410;52.532;13.336;2023-03-23T09:54:24;2.50;;;2.30;;
16593;SDS011;8410;52.532;13.336;2023-03-23T09:56:54;2.97;;;2.07;;
16593;SDS011;8410;52.532;13.336;2023-03-23T09:59:24;2.90;;;2.10;;
16593;SDS011;8410;52.532;13.336;2023-03-23T10:01:56;2.63;;;1.67;;
16593;SDS011;8410;52.532;13.336;2023-03-23T10:04:30;2.70;;;1.87;;
16593;SDS011;8410;52.532;13.336;2023-03-23T10:07:06;2.20;;;1.97;;
16593;SDS011;8410;52.532;13.336;2023-03-23T10:09:37;6.10;;;2.07;;
16593;SDS011;8410;52.532;13.336;2023-03-23T10:12:07;2.07;;;1.80;;
16593;SDS011;8410;52.532;13.336;2023-03-23T10:14:45;1.70;;;1.60;;
16593;SDS011;8410;52.532;13.336;2023-03-23T10:17:22;1.87;;;1.70;;
16593;SDS011;8410;52.532;13.336;2023-03-23T10:19:53;3.67;;;1.80;;
16593;SDS011;8410;52.532;13.336;2023-03-23T10:22:26;2.60;;;2.00;;
16593;SDS011;8410;52.532;13.336;2023-03-23T10:24:59;3.13;;;1.60;;
16593;SDS011;8410;52.532;13.336;2023-03-23T10:27:36;3.27;;;2.30;;
16593;SDS011;8410;52.532;13.336;2023-03-23T10:30:11;1.60;;;1.50;;
16593;SDS011;8410;52.532;13.336;2023-03-23T10:32:44;3.37;;;2.10;;
16593;SDS011;8410;52.532;13.336;2023-03-23T10:35:16;2.80;;;1.80;;
16593;SDS011;8410;52.532;13.336;2023-03-23T10:37:47;1.97;;;1.67;;
16593;SDS011;8410;52.532;13.336;2023-03-23T10:40:19;3.73;;;1.80;;
16593;SDS011;8410;52.532;13.336;2023-03-23T10:42:50;3.00;;;1.50;;
16593;SDS011;8410;52.532;13.336;2023-03-23T10:45:19;2.17;;;1.53;;
16593;SDS011;8410;52.532;13.336;2023-03-23T10:47:49;2.07;;;1.77;;
16593;SDS011;8410;52.532;13.336;2023-03-23T10:50:22;2.70;;;1.77;;
16593;SDS011;8410;52.532;13.336;2023-03-23T10:52:51;2.50;;;1.80;;
16593;SDS011;8410;52.532;13.336;2023-03-23T10:55:21;1.97;;;1.77;;
16593;SDS011;8410;52.532;13.336;2023-03-23T10:57:59;2.93;;;2.00;;
16593;SDS011;8410;52.532;13.336;2023-03-23T11:00:27;1.93;;;1.70;;
16593;SDS011;8410;52.532;13.336;2023-03-23T11:02:58;3.33;;;1.57;;
16593;SDS011;8410;52.532;13.336;2023-03-23T11:05:31;5.27;;;1.87;;
16593;SDS011;8410;52.532;13.336;2023-03-23T11:08:01;3.20;;;1.60;;
16593;SDS011;8410;52.532;13.336;2023-03-23T11:10:33;1.80;;;1.47;;
16593;SDS011;8410;52.532;13.336;2023-03-23T11:13:03;3.47;;;2.00;;
16593;SDS011;8410;52.532;13.336;2023-03-23T11:15:35;2.93;;;1.80;;
16593;SDS011;8410;52.532;13.336;2023-03-23T11:18:05;2.47;;;1.67;;
16593;SDS011;8410;52.532;13.336;2023-03-23T11:20:35;2.47;;;1.80;;
16593;SDS011;8410;52.532;13.336;2023-03-23T11:23:17;2.50;;;1.67;;
16593;SDS011;8410;52.532;13.336;2023-03-23T11:25:51;2.47;;;1.40;;
16593;SDS011;8410;52.532;13.336;2023-03-23T11:28:25;2.33;;;1.70;;
16593;SDS011;8410;52.532;13.336;2023-03-23T11:30:54;2.40;;;1.47;;
16593;SDS011;8410;52.532;13.336;2023-03-23T11:33:21;4.50;;;1.93;;
16593;SDS011;8410;52.532;13.336;2023-03-23T11:35:50;3.47;;;1.70;;
16593;SDS011;8410;52.532;13.336;2023-03-23T11:38:20;1.80;;;1.37;;
16593;SDS011;8410;52.532;13.336;2023-03-23T11:40:51;2.43;;;1.77;;
16593;SDS011;8410;52.532;13.336;2023-03-23T11:43:18;1.77;;;1.63;;
16593;SDS011;8410;52.532;13.336;2023-03-23T11:45:50;2.80;;;1.70;;
16593;SDS011;8410;52.532;13.336;2023-03-23T11:48:25;3.17;;;2.10;;
16593;SDS011;8410;52.532;13.336;2023-03-23T11:50:59;2.90;;;1.70;;
16593;SDS011;8410;52.532;13.336;2023-03-23T11:53:32;2.50;;;1.40;;
16593;SDS011;8410;52.532;13.336;2023-03-23T11:56:06;2.00;;;1.60;;
16593;SDS011;8410;52.532;13.336;2023-03-23T11:58:38;1.97;;;1.70;;
16593;SDS011;8410;52.532;13.336;2023-03-23T12:01:09;2.67;;;1.53;;
16593;SDS011;8410;52.532;13.336;2023-03-23T12:03:58;3.37;;;1.60;;
16593;SDS011;8410;52.532;13.336;2023-03-23T12:06:52;2.03;;;1.90;;
16593;SDS011;8410;52.532;13.336;2023-03-23T12:09:33;2.63;;;1.80;;
16593;SDS011;8410;52.532;13.336;2023-03-23T12:12:11;3.70;;;1.77;;
16593;SDS011;8410;52.532;13.336;2023-03-23T12:14:47;3.20;;;1.70;;
16593;SDS011;8410;52.532;13.336;2023-03-23T12:17:23;4.23;;;1.70;;
16593;SDS011;8410;52.532;13.336;2023-03-23T12:20:00;2.63;;;1.77;;
16593;SDS011;8410;52.532;13.336;2023-03-23T12:22:42;2.67;;;2.10;;
16593;SDS011;8410;52.532;13.336;2023-03-23T12:28:21;2.73;;;2.20;;
16593;SDS011;8410;52.532;13.336;2023-03-23T12:31:00;2.77;;;1.73;;
16593;SDS011;8410;52.532;13.336;2023-03-23T12:33:38;4.00;;;1.73;;
16593;SDS011;8410;52.532;13.336;2023-03-23T12:36:15;3.07;;;1.60;;
16593;SDS011;8410;52.532;13.336;2023-03-23T12:39:00;1.80;;;1.60;;
16593;SDS011;8410;52.532;13.336;2023-03-23T12:41:38;4.97;;;2.53;;
16593;SDS011;8410;52.532;13.336;2023-03-23T12:44:12;1.90;;;1.67;;
16593;SDS011;8410;52.532;13.336;2023-03-23T12:46:46;2.30;;;1.90;;
16593;SDS011;8410;52.532;13.336;2023-03-23T12:49:33;3.10;;;1.67;;
16593;SDS011;8410;52.532;13.336;2023-03-23T12:52:04;2.67;;;1.63;;
16593;SDS011;8410;52.532;13.336;2023-03-23T12:54:39;2.77;;;1.80;;
16593;SDS011;8410;52.532;13.336;2023-03-23T12:57:14;4.43;;;1.90;;
16593;SDS011;8410;52.532;13.336;2023-03-23T12:59:45;3.27;;;1.70;;
16593;SDS011;8410;52.532;13.336;2023-03-23T13:02:17;2.53;;;1.60;;
16593;SDS011;8410;52.532;13.336;2023-03-23T13:04:51;2.43;;;1.83;;
16593;SDS011;8410;52.532;13.336;2023-03-23T13:07:23;3.10;;;2.80;;
16593;SDS011;8410;52.532;13.336;2023-03-23T13:09:55;2.10;;;1.90;;
16593;SDS011;8410;52.532;13.336;2023-03-23T13:12:29;2.63;;;1.73;;
16593;SDS011;8410;52.532;13.336;2023-03-23T13:14:59;3.10;;;1.77;;
16593;SDS011;8410;52.532;13.336;2023-03-23T13:17:37;2.20;;;1.43;;
16593;SDS011;8410;52.532;13.336;2023-03-23T13:20:19;4.03;;;1.70;;
16593;SDS011;8410;52.532;13.336;2023-03-23T13:22:58;2.57;;;1.70;;
16593;SDS011;8410;52.532;13.336;2023-03-23T13:25:36;1.70;;;1.57;;
16593;SDS011;8410;52.532;13.336;2023-03-23T13:28:14;2.17;;;1.50;;
16593;SDS011;8410;52.532;13.336;2023-03-23T13:30:52;3.90;;;1.80;;
16593;SDS011;8410;52.532;13.336;2023-03-23T13:33:22;2.47;;;1.40;;
16593;SDS011;8410;52.532;13.336;2023-03-23T13:35:50;2.60;;;1.97;;
16593;SDS011;8410;52.532;13.336;2023-03-23T13:38:19;2.70;;;1.80;;
16593;SDS011;8410;52.532;13.336;2023-03-23T13:40:49;3.23;;;1.63;;
16593;SDS011;8410;52.532;13.336;2023-03-23T13:43:24;2.60;;;1.80;;
16593;SDS011;8410;52.532;13.336;2023-03-23T13:45:53;5.00;;;1.70;;
16593;SDS011;8410;52.532;13.336;2023-03-23T13:48:22;2.97;;;1.77;;
16593;SDS011;8410;52.532;13.336;2023-03-23T13:50:52;2.27;;;1.63;;
16593;SDS011;8410;52.532;13.336;2023-03-23T13:53:23;3.53;;;1.53;;
16593;SDS011;8410;52.532;13.336;2023-03-23T13:56:12;3.37;;;1.50;;
16593;SDS011;8410;52.532;13.336;2023-03-23T13:58:46;3.07;;;1.80;;
16593;SDS011;8410;52.532;13.336;2023-03-23T14:01:15;3.00;;;1.93;;
16593;SDS011;8410;52.532;13.336;2023-03-23T14:03:45;2.73;;;1.83;;
16593;SDS011;8410;52.532;13.336;2023-03-23T14:06:17;2.83;;;2.20;;
16593;SDS011;8410;52.532;13.336;2023-03-23T14:08:47;3.33;;;2.03;;
16593;SDS011;8410;52.532;13.336;2023-03-23T14:11:17;4.47;;;2.00;;
16593;SDS011;8410;52.532;13.336;2023-03-23T14:13:58;4.27;;;2.10;;
16593;SDS011;8410;52.532;13.336;2023-03-23T14:16:31;4.80;;;1.70;;
16593;SDS011;8410;52.532;13.336;2023-03-23T14:19:02;2.97;;;1.53;;
16593;SDS011;8410;52.532;13.336;2023-03-23T14:21:35;2.57;;;1.27;;
16593;SDS011;8410;52.532;13.336;2023-03-23T14:24:03;3.10;;;1.50;;
16593;SDS011;8410;52.532;13.336;2023-03-23T14:26:35;3.13;;;1.60;;
16593;SDS011;8410;52.532;13.336;2023-03-23T14:29:03;4.07;;;1.97;;
16593;SDS011;8410;52.532;13.336;2023-03-23T14:31:30;2.47;;;1.60;;
16593;SDS011;8410;52.532;13.336;2023-03-23T14:34:01;3.87;;;1.70;;
16593;SDS011;8410;52.532;13.336;2023-03-23T14:36:29;2.93;;;1.40;;
16593;SDS011;8410;52.532;13.336;2023-03-23T14:39:00;4.47;;;1.60;;
16593;SDS011;8410;52.532;13.336;2023-03-23T14:41:31;4.50;;;1.70;;
16593;SDS011;8410;52.532;13.336;2023-03-23T14:43:59;2.63;;;1.50;;
16593;SDS011;8410;52.532;13.336;2023-03-23T14:46:27;2.80;;;1.43;;
16593;SDS011;8410;52.532;13.336;2023-03-23T14:48:55;4.83;;;1.60;;
16593;SDS011;8410;52.532;13.336;2023-03-23T14:51:25;3.63;;;1.50;;
16593;SDS011;8410;52.532;13.336;2023-03-23T14:53:52;2.53;;;1.60;;
16593;SDS011;8410;52.532;13.336;2023-03-23T14:56:21;4.10;;;1.77;;
16593;SDS011;8410;52.532;13.336;2023-03-23T14:58:53;2.73;;;1.53;;
16593;SDS011;8410;52.532;13.336;2023-03-23T15:01:21;4.83;;;1.70;;
16593;SDS011;8410;52.532;13.336;2023-03-23T15:03:51;2.43;;;1.60;;
16593;SDS011;8410;52.532;13.336;2023-03-23T15:06:21;3.93;;;2.00;;
16593;SDS011;8410;52.532;13.336;2023-03-23T15:08:52;2.47;;;1.57;;
16593;SDS011;8410;52.532;13.336;2023-03-23T15:11:24;4.33;;;1.77;;
16593;SDS011;8410;52.532;13.336;2023-03-23T15:13:54;2.70;;;1.80;;